Temp: 6.7°C   Baro: 989.8mb
  Wind: 9.0mph   Dir: E (80°)
  Rain: 0.6mm (1.0mm/hr)
  Solar: 0W/m2  Hum: 86%
 
Bath Spa Weather Historical Data
 
Daily Summary for November 13, 2019 Units:  Metric    English   Both
Next Day »
Daily Weekly Monthly Yearly Custom
  Current: High: Low: Average:
Temperature: 6.7 °C 8.9 °C 4.3 °C 6.4 °C
Dew Point: 4.5 °C 5.5 °C 2.8 °C 4.1 °C
Humidity: 86% 92% 75% 85%
Wind Speed: 6.4km/h 19.5km/h 0.0km/h 5.3km/h
Wind Gust: 19.3km/h 27.4km/h - -
Wind directionSE - - WSW
Pressure: 989.7 hPa 1002.6 hPa 989.7 hPa -
Precipitation: 0.5 mm      
Historical Graphs
 
 
Tabular Data for November 13, 2019
Time Temperature Dew Point Pressure Wind direction Wind Speed Wind Gust Humidity Rainfall Rate (Hourly) solar
00:00 6.2 °C 4.5 °C 1002.6 hPa WNW 7.9 km/h 9.7 km/h 89% 0.0 mm 0.00 W/m2
00:05 6.2 °C 4.5 °C 1002.6 hPa WNW 6.4 km/h 9.7 km/h 89% 0.0 mm 0.00 W/m2
00:10 6.1 °C 4.4 °C 1002.6 hPa WNW 11.1 km/h 11.3 km/h 89% 0.0 mm 0.00 W/m2
00:15 6.0 °C 4.3 °C 1002.6 hPa WNW 6.4 km/h 9.7 km/h 89% 0.0 mm 0.00 W/m2
00:20 5.9 °C 4.2 °C 1002.6 hPa WNW 7.9 km/h 9.7 km/h 89% 0.0 mm 0.00 W/m2
00:25 5.8 °C 4.1 °C 1002.6 hPa WNW 9.7 km/h 12.9 km/h 89% 0.0 mm 0.00 W/m2
00:30 5.8 °C 4.1 °C 1002.6 hPa WNW 6.4 km/h 12.9 km/h 89% 0.0 mm 0.00 W/m2
00:35 5.9 °C 4.2 °C 1002.6 hPa WNW 6.4 km/h 9.7 km/h 89% 0.0 mm 0.00 W/m2
00:40 5.9 °C 4.2 °C 1002.6 hPa WNW 6.4 km/h 11.3 km/h 89% 0.0 mm 0.00 W/m2
00:45 5.9 °C 4.4 °C 1002.6 hPa WNW 3.2 km/h 9.7 km/h 90% 0.0 mm 0.00 W/m2
00:50 6.0 °C 4.5 °C 1002.3 hPa WNW 3.2 km/h 8.0 km/h 90% 0.0 mm 0.00 W/m2
00:55 6.1 °C 4.6 °C 1002.3 hPa WNW 7.9 km/h 9.7 km/h 90% 0.0 mm 0.00 W/m2
01:00 5.9 °C 4.2 °C 1002.6 hPa WNW 4.7 km/h 8.0 km/h 89% 0.0 mm 0.00 W/m2
01:05 5.8 °C 4.1 °C 1002.6 hPa WNW 3.2 km/h 9.7 km/h 89% 0.0 mm 0.00 W/m2
01:10 5.6 °C 3.9 °C 1002.6 hPa WNW 6.4 km/h 11.3 km/h 89% 0.0 mm 0.00 W/m2
01:15 5.5 °C 3.8 °C 1002.6 hPa WNW 6.4 km/h 9.7 km/h 89% 0.0 mm 0.00 W/m2
01:20 5.4 °C 3.7 °C 1002.6 hPa WNW 4.7 km/h 8.0 km/h 89% 0.0 mm 0.00 W/m2
01:25 5.3 °C 3.8 °C 1002.6 hPa WNW 4.7 km/h 9.7 km/h 90% 0.0 mm 0.00 W/m2
01:30 5.3 °C 3.8 °C 1002.6 hPa WNW 4.7 km/h 9.7 km/h 90% 0.0 mm 0.00 W/m2
01:35 5.6 °C 4.1 °C 1002.6 hPa WNW 3.2 km/h 9.7 km/h 90% 0.0 mm 0.00 W/m2
01:40 5.5 °C 4.0 °C 1002.6 hPa WNW 6.4 km/h 6.4 km/h 90% 0.0 mm 0.00 W/m2
01:45 5.4 °C 3.9 °C 1002.6 hPa WNW 4.7 km/h 8.0 km/h 90% 0.0 mm 0.00 W/m2
01:50 5.3 °C 3.8 °C 1002.6 hPa WNW 11.1 km/h 11.3 km/h 90% 0.0 mm 0.00 W/m2
01:55 5.2 °C 3.7 °C 1002.3 hPa WNW 9.7 km/h 11.3 km/h 90% 0.0 mm 0.00 W/m2
02:00 5.3 °C 3.8 °C 1002.6 hPa WNW 7.9 km/h 9.7 km/h 90% 0.0 mm 0.00 W/m2
02:05 5.4 °C 3.9 °C 1002.6 hPa WNW 6.4 km/h 12.9 km/h 90% 0.0 mm 0.00 W/m2
02:10 5.5 °C 4.0 °C 1002.3 hPa WNW 4.7 km/h 11.3 km/h 90% 0.0 mm 0.00 W/m2
02:15 5.6 °C 4.1 °C 1002.3 hPa WNW 9.7 km/h 12.9 km/h 90% 0.0 mm 0.00 W/m2
02:20 5.6 °C 4.1 °C 1002.3 hPa WNW 3.2 km/h 8.0 km/h 90% 0.0 mm 0.00 W/m2
02:25 5.5 °C 4.0 °C 1002.3 hPa WNW 1.4 km/h 3.2 km/h 90% 0.0 mm 0.00 W/m2
02:30 5.3 °C 3.8 °C 1002.3 hPa WNW 3.2 km/h 6.4 km/h 90% 0.0 mm 0.00 W/m2
02:35 5.2 °C 3.7 °C 1002.3 hPa WNW 6.4 km/h 6.4 km/h 90% 0.0 mm 0.00 W/m2
02:40 5.2 °C 3.7 °C 1002.3 hPa WNW 6.4 km/h 9.7 km/h 90% 0.0 mm 0.00 W/m2
02:45 5.3 °C 3.8 °C 1002.3 hPa WNW 6.4 km/h 9.7 km/h 90% 0.0 mm 0.00 W/m2
02:50 5.3 °C 3.8 °C 1002.3 hPa WNW 1.4 km/h 6.4 km/h 90% 0.0 mm 0.00 W/m2
02:55 5.2 °C 3.7 °C 1001.9 hPa WNW 3.2 km/h 6.4 km/h 90% 0.0 mm 0.00 W/m2
03:00 4.9 °C 3.4 °C 1002.3 hPa WNW 4.7 km/h 8.0 km/h 90% 0.0 mm 0.00 W/m2
03:05 4.8 °C 3.3 °C 1002.3 hPa WNW 6.4 km/h 6.4 km/h 90% 0.0 mm 0.00 W/m2
03:10 4.8 °C 3.3 °C 1002.3 hPa WNW 4.7 km/h 6.4 km/h 90% 0.0 mm 0.00 W/m2
03:15 4.9 °C 3.4 °C 1002.3 hPa WNW 4.7 km/h 8.0 km/h 90% 0.0 mm 0.00 W/m2
03:20 4.9 °C 3.4 °C 1002.3 hPa WNW 1.4 km/h 4.8 km/h 90% 0.0 mm 0.00 W/m2
03:25 5.0 °C 3.7 °C 1002.3 hPa Calm   4.8 km/h 91% 0.0 mm 0.00 W/m2
03:30 5.1 °C 3.8 °C 1002.3 hPa Calm   3.2 km/h 91% 0.0 mm 0.00 W/m2
03:35 5.0 °C 3.7 °C 1002.3 hPa Calm     91% 0.0 mm 0.00 W/m2
03:40 4.8 °C 3.3 °C 1002.3 hPa Calm     90% 0.0 mm 0.00 W/m2
03:45 4.6 °C 3.1 °C 1001.9 hPa Calm   1.6 km/h 90% 0.0 mm 0.00 W/m2
03:50 4.3 °C 2.8 °C 1002.3 hPa Calm   1.6 km/h 90% 0.0 mm 0.00 W/m2
03:55 4.3 °C 3.0 °C 1002.3 hPa WNW 1.4 km/h 3.2 km/h 91% 0.0 mm 0.00 W/m2
04:00 4.4 °C 3.1 °C 1002.3 hPa WNW 1.4 km/h 4.8 km/h 91% 0.0 mm 0.00 W/m2
04:05 4.3 °C 3.0 °C 1002.3 hPa WNW 1.4 km/h 3.2 km/h 91% 0.0 mm 0.00 W/m2
04:10 4.4 °C 3.1 °C 1002.3 hPa WNW 4.7 km/h 8.0 km/h 91% 0.0 mm 0.00 W/m2
04:15 4.6 °C 3.3 °C 1002.3 hPa WNW 3.2 km/h 6.4 km/h 91% 0.0 mm 0.00 W/m2
04:20 4.7 °C 3.4 °C 1002.3 hPa WNW 7.9 km/h 8.0 km/h 91% 0.0 mm 0.00 W/m2
04:25 4.7 °C 3.4 °C 1002.3 hPa WNW 3.2 km/h 6.4 km/h 91% 0.0 mm 0.00 W/m2
04:30 4.8 °C 3.5 °C 1002.6 hPa WNW 3.2 km/h 8.0 km/h 91% 0.0 mm 0.00 W/m2
04:35 4.8 °C 3.5 °C 1002.6 hPa WNW 4.7 km/h 9.7 km/h 91% 0.0 mm 0.00 W/m2
04:40 4.9 °C 3.6 °C 1002.6 hPa WNW 3.2 km/h 8.0 km/h 91% 0.0 mm 0.00 W/m2
04:45 5.1 °C 3.8 °C 1002.6 hPa NW 7.9 km/h 8.0 km/h 91% 0.0 mm 0.00 W/m2
04:50 5.1 °C 3.8 °C 1002.6 hPa NW 6.4 km/h 12.9 km/h 91% 0.0 mm 0.00 W/m2
04:55 5.1 °C 3.8 °C 1002.6 hPa NW 4.7 km/h 11.3 km/h 91% 0.0 mm 0.00 W/m2
05:00 5.2 °C 3.7 °C 1002.6 hPa NW 6.4 km/h 11.3 km/h 90% 0.0 mm 0.00 W/m2
05:05 5.2 °C 3.7 °C 1002.6 hPa NW 4.7 km/h 8.0 km/h 90% 0.0 mm 0.00 W/m2
05:10 5.2 °C 3.7 °C 1002.3 hPa NW 4.7 km/h 12.9 km/h 90% 0.0 mm 0.00 W/m2
05:15 5.3 °C 3.8 °C 1002.3 hPa NW 3.2 km/h 8.0 km/h 90% 0.0 mm 0.00 W/m2
05:20 5.3 °C 3.8 °C 1002.3 hPa NW 6.4 km/h 11.3 km/h 90% 0.0 mm 0.00 W/m2
05:25 5.3 °C 3.6 °C 1002.3 hPa NW 1.4 km/h 4.8 km/h 89% 0.0 mm 0.00 W/m2
05:30 5.3 °C 3.6 °C 1002.3 hPa NW 4.7 km/h 8.0 km/h 89% 0.0 mm 0.00 W/m2
05:35 5.4 °C 3.7 °C 1002.3 hPa WNW 7.9 km/h 14.5 km/h 89% 0.0 mm 0.00 W/m2
05:40 5.4 °C 3.7 °C 1002.3 hPa WNW 1.4 km/h 9.7 km/h 89% 0.0 mm 0.00 W/m2
05:45 5.4 °C 3.7 °C 1002.3 hPa WNW 6.4 km/h 9.7 km/h 89% 0.0 mm 0.00 W/m2
05:50 5.3 °C 3.6 °C 1002.3 hPa WNW 4.7 km/h 11.3 km/h 89% 0.0 mm 0.00 W/m2
05:55 5.3 °C 3.6 °C 1002.3 hPa WNW 9.7 km/h 11.3 km/h 89% 0.0 mm 0.00 W/m2
06:00 5.2 °C 3.5 °C 1002.3 hPa WNW 4.7 km/h 9.7 km/h 89% 0.0 mm 0.00 W/m2
06:05 5.1 °C 3.4 °C 1002.3 hPa WNW 6.4 km/h 8.0 km/h 89% 0.0 mm 0.00 W/m2
06:10 5.0 °C 3.3 °C 1002.3 hPa WNW 6.4 km/h 9.7 km/h 89% 0.0 mm 0.00 W/m2
06:15 4.9 °C 3.2 °C 1002.3 hPa WNW 3.2 km/h 4.8 km/h 89% 0.0 mm 0.00 W/m2
06:20 4.9 °C 3.2 °C 1002.3 hPa WNW 3.2 km/h 4.8 km/h 89% 0.0 mm 0.00 W/m2
06:25 4.9 °C 3.2 °C 1002.3 hPa WNW 7.9 km/h 8.0 km/h 89% 0.0 mm 0.00 W/m2
06:30 4.8 °C 3.3 °C 1002.3 hPa WNW 7.9 km/h 8.0 km/h 90% 0.0 mm 0.00 W/m2
06:35 4.8 °C 3.3 °C 1002.3 hPa WNW 4.7 km/h 4.8 km/h 90% 0.0 mm 0.00 W/m2
06:40 4.7 °C 3.2 °C 1001.9 hPa WNW 3.2 km/h 6.4 km/h 90% 0.0 mm 0.00 W/m2
06:45 4.7 °C 3.2 °C 1001.9 hPa WNW 1.4 km/h 4.8 km/h 90% 0.0 mm 0.00 W/m2
06:50 4.7 °C 3.2 °C 1002.3 hPa WNW 1.4 km/h 4.8 km/h 90% 0.0 mm 0.00 W/m2
06:55 4.6 °C 3.1 °C 1002.3 hPa WNW 1.4 km/h 4.8 km/h 90% 0.0 mm 0.00 W/m2
07:00 4.6 °C 3.1 °C 1002.3 hPa WNW 3.2 km/h 6.4 km/h 90% 0.0 mm 0.00 W/m2
07:05 4.6 °C 3.3 °C 1002.3 hPa WNW 1.4 km/h 3.2 km/h 91% 0.0 mm 0.00 W/m2
07:10 4.5 °C 3.0 °C 1002.3 hPa WNW 4.7 km/h 4.8 km/h 90% 0.0 mm 0.00 W/m2
07:15 4.6 °C 3.3 °C 1002.3 hPa WNW 3.2 km/h 6.4 km/h 91% 0.0 mm 0.00 W/m2
07:20 4.5 °C 3.2 °C 1002.3 hPa WNW 3.2 km/h 6.4 km/h 91% 0.0 mm 0.00 W/m2
07:25 4.4 °C 3.1 °C 1002.3 hPa WNW 3.2 km/h 4.8 km/h 91% 0.0 mm 0.00 W/m2
07:30 4.4 °C 3.1 °C 1002.3 hPa WNW 4.7 km/h 6.4 km/h 91% 0.0 mm 5.00 W/m2
07:35 4.4 °C 3.1 °C 1002.3 hPa WNW 6.4 km/h 8.0 km/h 91% 0.0 mm 7.00 W/m2
07:40 4.6 °C 3.3 °C 1002.3 hPa WNW 4.7 km/h 9.7 km/h 91% 0.0 mm 9.00 W/m2
07:45 4.6 °C 3.3 °C 1001.9 hPa WNW 6.4 km/h 8.0 km/h 91% 0.0 mm 11.00 W/m2
07:50 4.6 °C 3.3 °C 1001.9 hPa WNW 6.4 km/h 11.3 km/h 91% 0.0 mm 12.00 W/m2
07:55 4.7 °C 3.4 °C 1001.9 hPa WNW 6.4 km/h 9.7 km/h 91% 0.0 mm 16.00 W/m2
08:00 4.7 °C 3.4 °C 1001.9 hPa WNW 4.7 km/h 6.4 km/h 91% 0.0 mm 18.00 W/m2
08:05 4.8 °C 3.6 °C 1001.9 hPa WNW 4.7 km/h 8.0 km/h 92% 0.0 mm 19.00 W/m2
08:10 4.8 °C 3.6 °C 1001.9 hPa WNW 4.7 km/h 8.0 km/h 92% 0.0 mm 23.00 W/m2
08:15 4.9 °C 3.7 °C 1001.9 hPa WNW 6.4 km/h 9.7 km/h 92% 0.0 mm 23.00 W/m2
08:20 5.0 °C 3.8 °C 1001.9 hPa WNW 6.4 km/h 6.4 km/h 92% 0.0 mm 25.00 W/m2
08:25 5.0 °C 3.8 °C 1001.9 hPa WNW 4.7 km/h 6.4 km/h 92% 0.0 mm 26.00 W/m2
08:30 5.1 °C 3.8 °C 1001.9 hPa WNW 1.4 km/h 6.4 km/h 91% 0.0 mm 28.00 W/m2
08:35 5.2 °C 3.9 °C 1001.9 hPa WNW 1.4 km/h 6.4 km/h 91% 0.0 mm 30.00 W/m2
08:40 5.3 °C 4.0 °C 1001.9 hPa WNW 3.2 km/h 6.4 km/h 91% 0.0 mm 30.00 W/m2
08:45 5.3 °C 4.0 °C 1001.9 hPa WNW 4.7 km/h 6.4 km/h 91% 0.0 mm 33.00 W/m2
08:50 5.5 °C 4.1 °C 1001.9 hPa WNW 6.4 km/h 6.4 km/h 91% 0.0 mm 37.00 W/m2
08:55 5.5 °C 4.0 °C 1001.9 hPa WNW 4.7 km/h 6.4 km/h 90% 0.0 mm 42.00 W/m2
09:00 5.6 °C 4.1 °C 1001.9 hPa Calm   3.2 km/h 90% 0.0 mm 49.00 W/m2
09:05 5.8 °C 4.3 °C 1001.9 hPa Calm   4.8 km/h 90% 0.0 mm 58.00 W/m2
09:10 5.9 °C 4.4 °C 1001.9 hPa WNW 1.4 km/h 4.8 km/h 90% 0.0 mm 67.00 W/m2
09:15 6.1 °C 4.4 °C 1001.6 hPa Calm   1.6 km/h 89% 0.0 mm 76.00 W/m2
09:20 6.4 °C 4.7 °C 1001.6 hPa Calm   3.2 km/h 89% 0.0 mm 93.00 W/m2
09:25 6.6 °C 4.9 °C 1001.6 hPa Calm     89% 0.0 mm 113.00 W/m2
09:30 6.8 °C 5.0 °C 1001.6 hPa Calm   1.6 km/h 88% 0.0 mm 127.00 W/m2
09:35 7.1 °C 5.2 °C 1001.6 hPa Calm     88% 0.0 mm 148.00 W/m2
09:40 7.5 °C 5.5 °C 1001.2 hPa Calm     87% 0.0 mm 169.00 W/m2
09:45 7.7 °C 5.3 °C 1001.2 hPa Calm   1.6 km/h 85% 0.0 mm 149.00 W/m2
09:50 7.8 °C 5.4 °C 1001.2 hPa Calm     85% 0.0 mm 135.00 W/m2
09:55 7.7 °C 5.2 °C 1001.2 hPa Calm     84% 0.0 mm 144.00 W/m2
10:00 7.7 °C 5.0 °C 1001.2 hPa Calm     83% 0.0 mm 123.00 W/m2
10:05 7.7 °C 5.0 °C 1001.2 hPa Calm   3.2 km/h 83% 0.0 mm 121.00 W/m2
10:10 7.6 °C 4.9 °C 1000.9 hPa WNW 1.4 km/h 4.8 km/h 83% 0.0 mm 116.00 W/m2
10:15 7.6 °C 4.9 °C 1000.9 hPa WNW 1.4 km/h 4.8 km/h 83% 0.0 mm 125.00 W/m2
10:20 7.4 °C 4.5 °C 1000.9 hPa West 3.2 km/h 9.7 km/h 82% 0.0 mm 125.00 W/m2
10:25 7.4 °C 4.5 °C 1000.6 hPa Calm   3.2 km/h 82% 0.0 mm 113.00 W/m2
10:30 7.4 °C 4.5 °C 1000.6 hPa West 9.7 km/h 9.7 km/h 82% 0.0 mm 114.00 W/m2
10:35 7.3 °C 4.4 °C 1000.6 hPa West 7.9 km/h 8.0 km/h 82% 0.0 mm 123.00 W/m2
10:40 7.3 °C 4.3 °C 1000.6 hPa Calm   4.8 km/h 81% 0.0 mm 139.00 W/m2
10:45 7.3 °C 4.3 °C 1000.6 hPa West 3.2 km/h 8.0 km/h 81% 0.0 mm 153.00 W/m2
10:50 7.4 °C 4.4 °C 1000.2 hPa West 1.4 km/h 6.4 km/h 81% 0.0 mm 165.00 W/m2
10:55 7.6 °C 4.5 °C 1000.2 hPa West 11.3 km/h 11.3 km/h 81% 0.0 mm 172.00 W/m2
11:00 7.6 °C 4.4 °C 1000.2 hPa WSW 7.9 km/h 14.5 km/h 80% 0.0 mm 163.00 W/m2
11:05 7.6 °C 4.2 °C 1000.2 hPa WSW 9.7 km/h 11.3 km/h 79% 0.0 mm 116.00 W/m2
11:10 7.8 °C 4.4 °C 1000.2 hPa WSW 13.0 km/h 16.1 km/h 79% 0.0 mm 105.00 W/m2
11:15 7.6 °C 4.4 °C 999.9 hPa WSW 4.7 km/h 12.9 km/h 80% 0.0 mm 104.00 W/m2
11:20 7.4 °C 4.4 °C 999.9 hPa WSW 1.4 km/h 9.7 km/h 81% 0.0 mm 98.00 W/m2
11:25 7.4 °C 4.4 °C 999.9 hPa SW 11.1 km/h 11.3 km/h 81% 0.0 mm 100.00 W/m2
11:30 7.3 °C 4.4 °C 999.9 hPa SW 3.2 km/h 11.3 km/h 82% 0.0 mm 79.00 W/m2
11:35 7.3 °C 4.4 °C 999.5 hPa SW 1.4 km/h 8.0 km/h 82% 0.0 mm 90.00 W/m2
11:40 7.4 °C 4.5 °C 999.5 hPa SW 3.2 km/h 4.8 km/h 82% 0.0 mm 84.00 W/m2
11:45 7.4 °C 4.5 °C 999.5 hPa SW 3.2 km/h 3.2 km/h 82% 0.0 mm 69.00 W/m2
11:50 7.4 °C 4.5 °C 999.2 hPa SW 4.7 km/h 6.4 km/h 82% 0.0 mm 76.00 W/m2
11:55 7.4 °C 4.5 °C 999.2 hPa SW 1.4 km/h 8.0 km/h 82% 0.0 mm 74.00 W/m2
12:00 7.4 °C 4.7 °C 999.2 hPa Calm   9.7 km/h 83% 0.0 mm 88.00 W/m2
12:05 7.4 °C 4.5 °C 998.9 hPa SSW 6.4 km/h 12.9 km/h 82% 0.0 mm 105.00 W/m2
12:10 7.4 °C 4.7 °C 998.9 hPa SSW 4.7 km/h 11.3 km/h 83% 0.0 mm 100.00 W/m2
12:15 7.5 °C 4.8 °C 998.9 hPa SSW 3.2 km/h 9.7 km/h 83% 0.0 mm 93.00 W/m2
12:20 7.4 °C 4.5 °C 998.5 hPa SSW 6.4 km/h 11.3 km/h 82% 0.0 mm 105.00 W/m2
12:25 7.5 °C 4.6 °C 998.5 hPa SSW 3.2 km/h 11.3 km/h 82% 0.0 mm 139.00 W/m2
12:30 7.6 °C 4.7 °C 998.5 hPa SSW 6.4 km/h 9.7 km/h 82% 0.0 mm 153.00 W/m2
12:35 7.6 °C 4.7 °C 998.5 hPa South 4.7 km/h 8.0 km/h 82% 0.0 mm 162.00 W/m2
12:40 7.6 °C 4.5 °C 998.2 hPa South 1.4 km/h 8.0 km/h 81% 0.0 mm 193.00 W/m2
12:45 7.7 °C 4.6 °C 998.2 hPa South 1.4 km/h 11.3 km/h 81% 0.0 mm 183.00 W/m2
12:50 7.8 °C 4.7 °C 998.2 hPa Calm   6.4 km/h 81% 0.0 mm 156.00 W/m2
12:55 7.9 °C 4.7 °C 997.9 hPa South 3.2 km/h 8.0 km/h 80% 0.0 mm 141.00 W/m2
13:00 7.9 °C 4.7 °C 997.9 hPa South 1.4 km/h 3.2 km/h 80% 0.0 mm 123.00 W/m2
13:05 7.9 °C 4.7 °C 997.9 hPa SSW 7.9 km/h 8.0 km/h 80% 0.0 mm 123.00 W/m2
13:10 7.9 °C 4.5 °C 997.5 hPa SSW 6.4 km/h 9.7 km/h 79% 0.0 mm 123.00 W/m2
13:15 8.0 °C 4.6 °C 997.5 hPa SSW 6.4 km/h 11.3 km/h 79% 0.0 mm 125.00 W/m2
13:20 8.1 °C 4.5 °C 997.2 hPa SW 4.7 km/h 12.9 km/h 78% 0.0 mm 111.00 W/m2
13:25 8.1 °C 4.5 °C 997.2 hPa SW 6.4 km/h 6.4 km/h 78% 0.0 mm 102.00 W/m2
13:30 8.1 °C 4.5 °C 997.2 hPa SW 7.9 km/h 9.7 km/h 78% 0.0 mm 104.00 W/m2
13:35 8.1 °C 4.5 °C 996.8 hPa SSW 3.2 km/h 6.4 km/h 78% 0.0 mm 113.00 W/m2
13:40 8.1 °C 4.5 °C 996.8 hPa SSW 1.4 km/h 4.8 km/h 78% 0.0 mm 116.00 W/m2
13:45 8.2 °C 4.6 °C 996.8 hPa SSW 9.7 km/h 11.3 km/h 78% 0.0 mm 104.00 W/m2
13:50 8.2 °C 4.6 °C 996.5 hPa SSW 3.2 km/h 8.0 km/h 78% 0.0 mm 93.00 W/m2
13:55 8.2 °C 4.4 °C 996.5 hPa SSW 3.2 km/h 8.0 km/h 77% 0.0 mm 91.00 W/m2
14:00 8.3 °C 4.7 °C 996.2 hPa SSW 6.4 km/h 9.7 km/h 78% 0.0 mm 95.00 W/m2
14:05 8.2 °C 4.4 °C 996.2 hPa SSE 4.7 km/h 12.9 km/h 77% 0.0 mm 93.00 W/m2
14:10 8.3 °C 4.5 °C 995.8 hPa SSE 7.9 km/h 11.3 km/h 77% 0.0 mm 105.00 W/m2
14:15 8.3 °C 4.5 °C 995.8 hPa SSE 6.4 km/h 11.3 km/h 77% 0.0 mm 207.00 W/m2
14:20 8.6 °C 4.8 °C 995.8 hPa SSE 6.4 km/h 12.9 km/h 77% 0.0 mm 234.00 W/m2
14:25 8.7 °C 4.7 °C 995.8 hPa SSE 3.2 km/h 12.9 km/h 76% 0.0 mm 218.00 W/m2
14:30 8.9 °C 4.9 °C 995.5 hPa SSE 7.9 km/h 9.7 km/h 76% 0.0 mm 186.00 W/m2
14:35 8.9 °C 4.7 °C 995.5 hPa South 16.3 km/h 16.1 km/h 75% 0.0 mm 139.00 W/m2
14:40 8.8 °C 4.6 °C 995.1 hPa South 13.0 km/h 17.7 km/h 75% 0.0 mm 100.00 W/m2
14:45 8.7 °C 4.5 °C 995.1 hPa SSE 7.9 km/h 17.7 km/h 75% 0.0 mm 56.00 W/m2
14:50 8.6 °C 4.4 °C 994.8 hPa SSE 9.7 km/h 20.9 km/h 75% 0.0 mm 47.00 W/m2
14:55 8.6 °C 4.4 °C 994.8 hPa South 7.9 km/h 9.7 km/h 75% 0.0 mm 44.00 W/m2
15:00 8.6 °C 4.4 °C 994.5 hPa SSE 11.1 km/h 14.5 km/h 75% 0.0 mm 54.00 W/m2
15:05 8.6 °C 4.4 °C 994.5 hPa SSE 6.4 km/h 8.0 km/h 75% 0.0 mm 46.00 W/m2
15:10 8.5 °C 4.3 °C 994.5 hPa South 9.7 km/h 12.9 km/h 75% 0.0 mm 44.00 W/m2
15:15 8.4 °C 4.2 °C 994.1 hPa South 9.7 km/h 16.1 km/h 75% 0.0 mm 42.00 W/m2
15:20 8.4 °C 4.2 °C 994.1 hPa SSE 6.4 km/h 14.5 km/h 75% 0.0 mm 40.00 W/m2
15:25 8.3 °C 4.3 °C 993.8 hPa SE 9.7 km/h 25.7 km/h 76% 0.0 mm 39.00 W/m2
15:30 8.2 °C 4.2 °C 993.8 hPa South 14.3 km/h 19.3 km/h 76% 0.0 mm 37.00 W/m2
15:35 8.0 °C 4.2 °C 993.8 hPa SSE 7.9 km/h 17.7 km/h 77% 0.0 mm 33.00 W/m2
15:40 7.9 °C 4.3 °C 993.5 hPa SSW 19.5 km/h 19.3 km/h 78% 0.0 mm 26.00 W/m2
15:45 7.8 °C 4.2 °C 993.5 hPa SSE 19.5 km/h 20.9 km/h 78% 0.0 mm 21.00 W/m2
15:50 7.7 °C 4.3 °C 993.1 hPa SE 6.4 km/h 14.5 km/h 79% 0.0 mm 16.00 W/m2
15:55 7.6 °C 4.2 °C 993.1 hPa SSE 7.9 km/h 16.1 km/h 79% 0.0 mm 12.00 W/m2
16:00 7.6 °C 4.2 °C 992.8 hPa SSE 9.7 km/h 14.5 km/h 79% 0.0 mm 12.00 W/m2
16:05 7.5 °C 4.1 °C 992.8 hPa SSE 4.7 km/h 19.3 km/h 79% 0.0 mm 9.00 W/m2
16:10 7.4 °C 4.0 °C 992.8 hPa ESE 7.9 km/h 17.7 km/h 79% 0.0 mm 5.00 W/m2
16:15 7.4 °C 4.2 °C 992.4 hPa SE 4.7 km/h 16.1 km/h 80% 0.0 mm 0.00 W/m2
16:20 7.3 °C 4.1 °C 992.4 hPa SSE 6.4 km/h 16.1 km/h 80% 0.0 mm 0.00 W/m2
16:25 7.3 °C 4.1 °C 992.4 hPa SSE 11.1 km/h 16.1 km/h 80% 0.0 mm 0.00 W/m2
16:30 7.4 °C 4.2 °C 992.1 hPa SSE 6.4 km/h 17.7 km/h 80% 0.0 mm 0.00 W/m2
16:35 7.3 °C 4.1 °C 992.1 hPa SSE 11.1 km/h 17.7 km/h 80% 0.0 mm 0.00 W/m2
16:40 7.3 °C 4.1 °C 992.1 hPa SSE 7.9 km/h 14.5 km/h 80% 0.0 mm 0.00 W/m2
16:45 7.4 °C 4.2 °C 991.8 hPa SE 6.4 km/h 17.7 km/h 80% 0.0 mm 0.00 W/m2
16:50 7.4 °C 4.2 °C 991.4 hPa SE 13.0 km/h 17.7 km/h 80% 0.0 mm 0.00 W/m2
16:55 7.4 °C 4.0 °C 991.4 hPa SSE 3.2 km/h 12.9 km/h 79% 0.0 mm 0.00 W/m2
17:00 7.5 °C 4.1 °C 991.4 hPa SSE 4.7 km/h 20.9 km/h 79% 0.0 mm 0.00 W/m2
17:05 7.5 °C 4.1 °C 991.1 hPa SE 3.2 km/h 19.3 km/h 79% 0.0 mm 0.00 W/m2
17:10 7.4 °C 4.0 °C 991.1 hPa SE 11.1 km/h 16.1 km/h 79% 0.0 mm 0.00 W/m2
17:15 7.4 °C 4.2 °C 991.1 hPa SE 11.1 km/h 16.1 km/h 80% 0.0 mm 0.00 W/m2
17:20 7.4 °C 4.2 °C 990.7 hPa SE 7.9 km/h 16.1 km/h 80% 0.0 mm 0.00 W/m2
17:25 7.3 °C 4.1 °C 990.7 hPa SE 19.5 km/h 19.3 km/h 80% 0.0 mm 0.00 W/m2
17:30 7.2 °C 4.2 °C 990.7 hPa SE 11.1 km/h 19.3 km/h 81% 0.0 mm 0.00 W/m2
17:35 7.2 °C 4.3 °C 990.7 hPa SSE 9.7 km/h 25.7 km/h 82% 0.0 mm 0.00 W/m2
17:40 7.1 °C 4.4 °C 990.7 hPa ESE 14.3 km/h 17.7 km/h 83% 0.3 mm 0.00 W/m2
17:45 7.0 °C 4.3 °C 990.4 hPa SSE 6.4 km/h 17.7 km/h 83% 0.3 mm 0.00 W/m2
17:50 6.8 °C 4.3 °C 990.1 hPa SE 6.4 km/h 16.1 km/h 84% 0.5 mm 0.00 W/m2
17:55 6.8 °C 4.5 °C 990.1 hPa SE 6.4 km/h 17.7 km/h 85% 0.5 mm 0.00 W/m2
18:00 6.7 °C 4.4 °C 989.7 hPa ESE 9.7 km/h 27.4 km/h 85% 0.5 mm 0.00 W/m2
18:05 6.7 °C 4.5 °C 989.7 hPa SE 6.4 km/h 19.3 km/h 86% 0.5 mm 0.00 W/m2